Terminal Aerodrome Forecast
Issued by NWS Wilmington, NC

Home | Current Version | Previous Version | Text Only | Print | Product List | Glossary On
Versions: 1 2 3 4 5 6 7 8 9 10 11 12 13 14 15 16 17 18 19
000
FTUS42 KILM 260200 AAA
TAFLBT
TAF AMD
KLBT 260238Z 2603/2624 04006KT 4SM -RA BR BKN005 OVC015
     FM261200 33013G20KT 6SM -RA BR BKN009 OVC020
     FM261800 30011KT P6SM BKN020 BKN100=

USA.gov is the U.S. government's official web portal to all federal, state and local government web resources and services.